Lindale, Texas
Current Conditions -  °F | °C
As of 3:53 PM on Thursday 20 Nov 2014 (Local Time) from KTYR Reporting Station
Broken Clouds Broken Clouds  
Wind Chill: 69°   Ceiling: 8000
Heat Index: 69°   Visibility: 10mi
Dew Point: 54°   Wind: 13mph
Humidity: 58%   Direction: 140°SE
Pressure: 30.05"   Gusts: NA
Location:  32.52°N, 95.41°W
Report Text: KTYR 202153Z 14011KT 10SM SCT033 BKN080 21/12 A3005 RMK AO2 SLP174 T02060122
Loading
Personal Weather Stations






























Interactive Weather Map New forecast layout! Learn more

10-Day Weather Forecast

Advertisements
Track Severe Weather on mobile